sensor_id;sensor_type;location;lat;lon;timestamp;P1;durP1;ratioP1;P2;durP2;ratioP2
45420;SDS011;55462;47.042;8.292;2023-07-16T00:00:56;6.53;;;5.45;;
45420;SDS011;55462;47.042;8.292;2023-07-16T00:03:21;5.25;;;4.25;;
45420;SDS011;55462;47.042;8.292;2023-07-16T00:05:49;3.80;;;3.45;;
45420;SDS011;55462;47.042;8.292;2023-07-16T00:08:15;3.03;;;2.72;;
45420;SDS011;55462;47.042;8.292;2023-07-16T00:10:40;4.28;;;3.13;;
45420;SDS011;55462;47.042;8.292;2023-07-16T00:13:06;3.35;;;3.05;;
45420;SDS011;55462;47.042;8.292;2023-07-16T00:15:31;5.60;;;3.20;;
45420;SDS011;55462;47.042;8.292;2023-07-16T00:17:56;2.88;;;2.67;;
45420;SDS011;55462;47.042;8.292;2023-07-16T00:20:22;3.65;;;2.75;;
45420;SDS011;55462;47.042;8.292;2023-07-16T00:22:49;5.43;;;3.20;;
45420;SDS011;55462;47.042;8.292;2023-07-16T00:25:14;4.78;;;2.80;;
45420;SDS011;55462;47.042;8.292;2023-07-16T00:27:40;2.70;;;2.50;;
45420;SDS011;55462;47.042;8.292;2023-07-16T00:30:05;2.33;;;2.15;;
45420;SDS011;55462;47.042;8.292;2023-07-16T00:32:32;3.65;;;2.78;;
45420;SDS011;55462;47.042;8.292;2023-07-16T00:34:57;2.42;;;2.30;;
45420;SDS011;55462;47.042;8.292;2023-07-16T00:37:22;2.78;;;2.40;;
45420;SDS011;55462;47.042;8.292;2023-07-16T00:39:48;3.95;;;2.25;;
45420;SDS011;55462;47.042;8.292;2023-07-16T00:42:13;2.42;;;2.33;;
45420;SDS011;55462;47.042;8.292;2023-07-16T00:44:38;6.18;;;2.40;;
45420;SDS011;55462;47.042;8.292;2023-07-16T00:47:04;2.78;;;2.55;;
45420;SDS011;55462;47.042;8.292;2023-07-16T00:49:29;2.95;;;2.55;;
45420;SDS011;55462;47.042;8.292;2023-07-16T00:51:54;2.65;;;2.42;;
45420;SDS011;55462;47.042;8.292;2023-07-16T00:54:20;2.67;;;2.47;;
45420;SDS011;55462;47.042;8.292;2023-07-16T00:56:45;2.58;;;2.42;;
45420;SDS011;55462;47.042;8.292;2023-07-16T00:59:11;4.03;;;2.40;;
45420;SDS011;55462;47.042;8.292;2023-07-16T01:01:37;3.58;;;2.35;;
45420;SDS011;55462;47.042;8.292;2023-07-16T01:04:03;2.40;;;2.20;;
45420;SDS011;55462;47.042;8.292;2023-07-16T01:06:33;3.13;;;2.25;;
45420;SDS011;55462;47.042;8.292;2023-07-16T01:09:08;2.33;;;2.13;;
45420;SDS011;55462;47.042;8.292;2023-07-16T01:11:36;2.60;;;2.40;;
45420;SDS011;55462;47.042;8.292;2023-07-16T01:14:02;2.53;;;2.20;;
45420;SDS011;55462;47.042;8.292;2023-07-16T01:16:28;4.10;;;2.53;;
45420;SDS011;55462;47.042;8.292;2023-07-16T01:18:54;2.63;;;2.42;;
45420;SDS011;55462;47.042;8.292;2023-07-16T01:21:20;2.65;;;2.22;;
45420;SDS011;55462;47.042;8.292;2023-07-16T01:27:04;2.65;;;2.45;;
45420;SDS011;55462;47.042;8.292;2023-07-16T01:29:34;2.20;;;2.10;;
45420;SDS011;55462;47.042;8.292;2023-07-16T01:32:03;2.58;;;2.30;;
45420;SDS011;55462;47.042;8.292;2023-07-16T01:34:29;2.30;;;2.10;;
45420;SDS011;55462;47.042;8.292;2023-07-16T01:36:58;2.22;;;2.13;;
45420;SDS011;55462;47.042;8.292;2023-07-16T01:39:24;2.35;;;2.25;;
45420;SDS011;55462;47.042;8.292;2023-07-16T01:41:49;2.58;;;2.38;;
45420;SDS011;55462;47.042;8.292;2023-07-16T01:44:14;2.40;;;2.25;;
45420;SDS011;55462;47.042;8.292;2023-07-16T01:46:40;2.30;;;2.20;;
45420;SDS011;55462;47.042;8.292;2023-07-16T01:49:05;2.30;;;2.10;;
45420;SDS011;55462;47.042;8.292;2023-07-16T01:51:30;3.67;;;2.30;;
45420;SDS011;55462;47.042;8.292;2023-07-16T01:53:56;2.85;;;2.30;;
45420;SDS011;55462;47.042;8.292;2023-07-16T01:56:21;2.83;;;2.63;;
45420;SDS011;55462;47.042;8.292;2023-07-16T01:58:46;2.42;;;2.17;;
45420;SDS011;55462;47.042;8.292;2023-07-16T02:01:12;2.55;;;2.35;;
45420;SDS011;55462;47.042;8.292;2023-07-16T02:03:37;4.00;;;2.58;;
45420;SDS011;55462;47.042;8.292;2023-07-16T02:06:02;3.03;;;2.47;;
45420;SDS011;55462;47.042;8.292;2023-07-16T02:08:27;2.58;;;2.40;;
45420;SDS011;55462;47.042;8.292;2023-07-16T02:10:53;2.13;;;2.00;;
45420;SDS011;55462;47.042;8.292;2023-07-16T02:13:18;4.15;;;2.55;;
45420;SDS011;55462;47.042;8.292;2023-07-16T02:15:43;2.70;;;2.50;;
45420;SDS011;55462;47.042;8.292;2023-07-16T02:18:09;2.72;;;2.40;;
45420;SDS011;55462;47.042;8.292;2023-07-16T02:20:35;2.65;;;2.45;;
45420;SDS011;55462;47.042;8.292;2023-07-16T02:23:00;2.90;;;2.60;;
45420;SDS011;55462;47.042;8.292;2023-07-16T02:25:25;3.38;;;2.40;;
45420;SDS011;55462;47.042;8.292;2023-07-16T02:27:51;3.72;;;2.60;;
45420;SDS011;55462;47.042;8.292;2023-07-16T02:30:16;2.80;;;2.60;;
45420;SDS011;55462;47.042;8.292;2023-07-16T02:32:41;2.53;;;2.42;;
45420;SDS011;55462;47.042;8.292;2023-07-16T02:35:07;2.80;;;2.50;;
45420;SDS011;55462;47.042;8.292;2023-07-16T02:37:32;3.72;;;2.20;;
45420;SDS011;55462;47.042;8.292;2023-07-16T02:39:58;2.85;;;2.50;;
45420;SDS011;55462;47.042;8.292;2023-07-16T02:42:23;2.92;;;2.72;;
45420;SDS011;55462;47.042;8.292;2023-07-16T02:44:49;2.40;;;2.20;;
45420;SDS011;55462;47.042;8.292;2023-07-16T02:47:14;2.80;;;2.60;;
45420;SDS011;55462;47.042;8.292;2023-07-16T02:49:39;2.80;;;2.60;;
45420;SDS011;55462;47.042;8.292;2023-07-16T02:52:05;3.53;;;2.75;;
45420;SDS011;55462;47.042;8.292;2023-07-16T02:54:31;2.72;;;2.53;;
45420;SDS011;55462;47.042;8.292;2023-07-16T02:56:57;2.50;;;2.40;;
45420;SDS011;55462;47.042;8.292;2023-07-16T02:59:22;2.38;;;2.28;;
45420;SDS011;55462;47.042;8.292;2023-07-16T03:01:48;2.65;;;2.45;;
45420;SDS011;55462;47.042;8.292;2023-07-16T03:04:13;2.78;;;2.58;;
45420;SDS011;55462;47.042;8.292;2023-07-16T03:06:38;2.67;;;2.47;;
45420;SDS011;55462;47.042;8.292;2023-07-16T03:09:04;3.67;;;2.75;;
45420;SDS011;55462;47.042;8.292;2023-07-16T03:11:29;3.03;;;2.70;;
45420;SDS011;55462;47.042;8.292;2023-07-16T03:13:54;3.40;;;3.10;;
45420;SDS011;55462;47.042;8.292;2023-07-16T03:16:20;3.17;;;2.50;;
45420;SDS011;55462;47.042;8.292;2023-07-16T03:18:45;5.75;;;2.90;;
45420;SDS011;55462;47.042;8.292;2023-07-16T03:21:11;3.20;;;2.78;;
45420;SDS011;55462;47.042;8.292;2023-07-16T03:23:36;2.45;;;2.35;;
45420;SDS011;55462;47.042;8.292;2023-07-16T03:26:01;3.38;;;2.72;;
45420;SDS011;55462;47.042;8.292;2023-07-16T03:28:27;3.40;;;3.00;;
45420;SDS011;55462;47.042;8.292;2023-07-16T03:30:52;3.08;;;2.20;;
45420;SDS011;55462;47.042;8.292;2023-07-16T03:33:19;3.00;;;2.80;;
45420;SDS011;55462;47.042;8.292;2023-07-16T03:35:44;2.60;;;2.47;;
45420;SDS011;55462;47.042;8.292;2023-07-16T03:38:10;3.28;;;2.40;;
45420;SDS011;55462;47.042;8.292;2023-07-16T03:40:36;2.78;;;2.58;;
45420;SDS011;55462;47.042;8.292;2023-07-16T03:43:01;3.00;;;2.80;;
45420;SDS011;55462;47.042;8.292;2023-07-16T03:45:27;2.70;;;2.50;;
45420;SDS011;55462;47.042;8.292;2023-07-16T03:47:52;3.15;;;2.53;;
45420;SDS011;55462;47.042;8.292;2023-07-16T03:50:17;2.63;;;2.42;;
45420;SDS011;55462;47.042;8.292;2023-07-16T03:52:43;3.15;;;2.70;;
45420;SDS011;55462;47.042;8.292;2023-07-16T03:55:09;2.60;;;2.35;;
45420;SDS011;55462;47.042;8.292;2023-07-16T03:57:34;2.88;;;2.75;;
45420;SDS011;55462;47.042;8.292;2023-07-16T04:00:00;2.92;;;2.60;;
45420;SDS011;55462;47.042;8.292;2023-07-16T04:02:25;2.72;;;2.53;;
45420;SDS011;55462;47.042;8.292;2023-07-16T04:04:50;3.10;;;2.80;;
45420;SDS011;55462;47.042;8.292;2023-07-16T04:07:16;2.60;;;2.50;;
45420;SDS011;55462;47.042;8.292;2023-07-16T04:09:42;3.38;;;2.80;;
45420;SDS011;55462;47.042;8.292;2023-07-16T04:12:07;5.18;;;3.03;;
45420;SDS011;55462;47.042;8.292;2023-07-16T04:14:33;2.60;;;2.50;;
45420;SDS011;55462;47.042;8.292;2023-07-16T04:16:58;2.97;;;2.78;;
45420;SDS011;55462;47.042;8.292;2023-07-16T04:19:24;3.70;;;3.00;;
45420;SDS011;55462;47.042;8.292;2023-07-16T04:21:49;3.65;;;2.92;;
45420;SDS011;55462;47.042;8.292;2023-07-16T04:24:14;2.97;;;2.30;;
45420;SDS011;55462;47.042;8.292;2023-07-16T04:26:40;3.17;;;2.85;;
45420;SDS011;55462;47.042;8.292;2023-07-16T04:29:05;5.28;;;2.70;;
45420;SDS011;55462;47.042;8.292;2023-07-16T04:31:30;4.95;;;2.80;;
45420;SDS011;55462;47.042;8.292;2023-07-16T04:33:56;3.70;;;2.92;;
45420;SDS011;55462;47.042;8.292;2023-07-16T04:36:21;4.80;;;3.40;;
45420;SDS011;55462;47.042;8.292;2023-07-16T04:38:46;4.07;;;2.63;;
45420;SDS011;55462;47.042;8.292;2023-07-16T04:41:12;3.38;;;3.08;;
45420;SDS011;55462;47.042;8.292;2023-07-16T04:43:40;3.30;;;2.58;;
45420;SDS011;55462;47.042;8.292;2023-07-16T04:46:05;3.38;;;3.08;;
45420;SDS011;55462;47.042;8.292;2023-07-16T04:48:30;3.45;;;3.22;;
45420;SDS011;55462;47.042;8.292;2023-07-16T04:50:56;3.35;;;3.05;;
45420;SDS011;55462;47.042;8.292;2023-07-16T04:53:22;3.03;;;2.70;;
45420;SDS011;55462;47.042;8.292;2023-07-16T04:55:47;3.72;;;2.92;;
45420;SDS011;55462;47.042;8.292;2023-07-16T04:58:13;3.35;;;2.90;;
45420;SDS011;55462;47.042;8.292;2023-07-16T05:00:39;5.45;;;3.15;;
45420;SDS011;55462;47.042;8.292;2023-07-16T05:03:04;3.30;;;2.92;;
45420;SDS011;55462;47.042;8.292;2023-07-16T05:05:29;2.90;;;2.70;;
45420;SDS011;55462;47.042;8.292;2023-07-16T05:07:55;3.70;;;3.00;;
45420;SDS011;55462;47.042;8.292;2023-07-16T05:10:20;3.13;;;2.83;;
45420;SDS011;55462;47.042;8.292;2023-07-16T05:12:46;3.60;;;3.00;;
45420;SDS011;55462;47.042;8.292;2023-07-16T05:15:11;3.42;;;3.22;;
45420;SDS011;55462;47.042;8.292;2023-07-16T05:17:36;3.75;;;3.45;;
45420;SDS011;55462;47.042;8.292;2023-07-16T05:20:02;3.60;;;3.30;;
45420;SDS011;55462;47.042;8.292;2023-07-16T05:22:29;3.53;;;3.22;;
45420;SDS011;55462;47.042;8.292;2023-07-16T05:24:54;3.13;;;2.90;;
45420;SDS011;55462;47.042;8.292;2023-07-16T05:27:19;3.50;;;3.17;;
45420;SDS011;55462;47.042;8.292;2023-07-16T05:29:45;3.80;;;3.50;;
45420;SDS011;55462;47.042;8.292;2023-07-16T05:32:10;5.03;;;3.63;;
45420;SDS011;55462;47.042;8.292;2023-07-16T05:34:35;3.40;;;3.10;;
45420;SDS011;55462;47.042;8.292;2023-07-16T05:37:01;3.92;;;2.80;;
45420;SDS011;55462;47.042;8.292;2023-07-16T05:39:26;3.50;;;2.80;;
45420;SDS011;55462;47.042;8.292;2023-07-16T05:41:51;3.13;;;2.92;;
45420;SDS011;55462;47.042;8.292;2023-07-16T05:44:17;2.63;;;2.53;;
45420;SDS011;55462;47.042;8.292;2023-07-16T05:46:42;3.95;;;3.65;;
45420;SDS011;55462;47.042;8.292;2023-07-16T05:49:07;3.38;;;3.17;;
45420;SDS011;55462;47.042;8.292;2023-07-16T05:51:32;4.00;;;3.70;;
45420;SDS011;55462;47.042;8.292;2023-07-16T05:53:58;4.10;;;3.30;;
45420;SDS011;55462;47.042;8.292;2023-07-16T05:56:23;3.50;;;3.30;;
45420;SDS011;55462;47.042;8.292;2023-07-16T05:58:48;4.57;;;3.50;;
45420;SDS011;55462;47.042;8.292;2023-07-16T06:01:14;3.50;;;3.20;;
45420;SDS011;55462;47.042;8.292;2023-07-16T06:03:39;3.42;;;3.22;;
45420;SDS011;55462;47.042;8.292;2023-07-16T06:06:04;3.47;;;3.17;;
45420;SDS011;55462;47.042;8.292;2023-07-16T06:08:30;3.60;;;3.25;;
45420;SDS011;55462;47.042;8.292;2023-07-16T06:10:55;4.70;;;3.53;;
45420;SDS011;55462;47.042;8.292;2023-07-16T06:13:20;3.85;;;3.55;;
45420;SDS011;55462;47.042;8.292;2023-07-16T06:15:49;4.93;;;3.15;;
45420;SDS011;55462;47.042;8.292;2023-07-16T06:18:14;3.60;;;3.30;;
45420;SDS011;55462;47.042;8.292;2023-07-16T06:20:42;5.45;;;3.35;;
45420;SDS011;55462;47.042;8.292;2023-07-16T06:23:14;5.22;;;3.92;;
45420;SDS011;55462;47.042;8.292;2023-07-16T06:25:41;3.92;;;3.63;;
45420;SDS011;55462;47.042;8.292;2023-07-16T06:28:09;3.88;;;3.58;;
45420;SDS011;55462;47.042;8.292;2023-07-16T06:30:35;4.30;;;3.90;;
45420;SDS011;55462;47.042;8.292;2023-07-16T06:33:00;4.05;;;3.75;;
45420;SDS011;55462;47.042;8.292;2023-07-16T06:35:25;3.75;;;3.50;;
45420;SDS011;55462;47.042;8.292;2023-07-16T06:37:51;4.07;;;3.70;;
45420;SDS011;55462;47.042;8.292;2023-07-16T06:40:16;3.85;;;3.55;;
45420;SDS011;55462;47.042;8.292;2023-07-16T06:42:41;3.50;;;3.30;;
45420;SDS011;55462;47.042;8.292;2023-07-16T06:45:07;4.18;;;3.85;;
45420;SDS011;55462;47.042;8.292;2023-07-16T06:47:33;4.40;;;4.00;;
45420;SDS011;55462;47.042;8.292;2023-07-16T06:49:58;4.40;;;4.00;;
45420;SDS011;55462;47.042;8.292;2023-07-16T06:52:23;4.55;;;4.15;;
45420;SDS011;55462;47.042;8.292;2023-07-16T06:54:55;5.78;;;4.50;;
45420;SDS011;55462;47.042;8.292;2023-07-16T06:57:22;5.53;;;5.10;;
45420;SDS011;55462;47.042;8.292;2023-07-16T06:59:47;5.00;;;4.60;;
45420;SDS011;55462;47.042;8.292;2023-07-16T07:02:13;4.82;;;4.43;;
45420;SDS011;55462;47.042;8.292;2023-07-16T07:04:38;4.07;;;3.83;;
45420;SDS011;55462;47.042;8.292;2023-07-16T07:07:03;4.30;;;3.70;;
45420;SDS011;55462;47.042;8.292;2023-07-16T07:09:29;4.05;;;3.78;;
45420;SDS011;55462;47.042;8.292;2023-07-16T07:11:54;4.20;;;3.88;;
45420;SDS011;55462;47.042;8.292;2023-07-16T07:14:20;3.55;;;3.25;;
45420;SDS011;55462;47.042;8.292;2023-07-16T07:16:45;4.00;;;3.70;;
45420;SDS011;55462;47.042;8.292;2023-07-16T07:19:10;3.75;;;3.35;;
45420;SDS011;55462;47.042;8.292;2023-07-16T07:21:36;3.85;;;3.50;;
45420;SDS011;55462;47.042;8.292;2023-07-16T07:24:01;3.42;;;3.22;;
45420;SDS011;55462;47.042;8.292;2023-07-16T07:26:27;3.85;;;3.17;;
45420;SDS011;55462;47.042;8.292;2023-07-16T07:28:52;5.10;;;3.55;;
45420;SDS011;55462;47.042;8.292;2023-07-16T07:31:18;3.50;;;3.20;;
45420;SDS011;55462;47.042;8.292;2023-07-16T07:33:43;3.60;;;3.30;;
45420;SDS011;55462;47.042;8.292;2023-07-16T07:36:08;3.72;;;3.33;;
45420;SDS011;55462;47.042;8.292;2023-07-16T07:38:34;3.75;;;3.47;;
45420;SDS011;55462;47.042;8.292;2023-07-16T07:40:59;3.28;;;3.08;;
45420;SDS011;55462;47.042;8.292;2023-07-16T07:43:24;2.95;;;2.75;;
45420;SDS011;55462;47.042;8.292;2023-07-16T07:45:50;3.45;;;3.05;;
45420;SDS011;55462;47.042;8.292;2023-07-16T07:48:15;4.47;;;2.90;;
45420;SDS011;55462;47.042;8.292;2023-07-16T07:50:40;3.78;;;3.47;;
45420;SDS011;55462;47.042;8.292;2023-07-16T07:53:06;3.42;;;3.22;;
45420;SDS011;55462;47.042;8.292;2023-07-16T07:55:31;3.40;;;2.80;;
45420;SDS011;55462;47.042;8.292;2023-07-16T07:57:57;2.97;;;2.78;;
45420;SDS011;55462;47.042;8.292;2023-07-16T08:00:22;3.20;;;3.00;;
45420;SDS011;55462;47.042;8.292;2023-07-16T08:02:47;2.97;;;2.72;;
45420;SDS011;55462;47.042;8.292;2023-07-16T08:05:13;3.15;;;2.95;;
45420;SDS011;55462;47.042;8.292;2023-07-16T08:07:38;3.25;;;3.00;;
45420;SDS011;55462;47.042;8.292;2023-07-16T08:10:03;2.78;;;2.65;;
45420;SDS011;55462;47.042;8.292;2023-07-16T08:12:29;2.90;;;2.70;;
45420;SDS011;55462;47.042;8.292;2023-07-16T08:14:55;3.10;;;2.88;;
45420;SDS011;55462;47.042;8.292;2023-07-16T08:17:21;3.00;;;2.80;;
45420;SDS011;55462;47.042;8.292;2023-07-16T08:19:46;3.30;;;3.00;;
45420;SDS011;55462;47.042;8.292;2023-07-16T08:22:11;2.33;;;2.22;;
45420;SDS011;55462;47.042;8.292;2023-07-16T08:24:37;2.30;;;2.20;;
45420;SDS011;55462;47.042;8.292;2023-07-16T08:27:02;2.03;;;1.92;;
45420;SDS011;55462;47.042;8.292;2023-07-16T08:29:28;2.30;;;2.10;;
45420;SDS011;55462;47.042;8.292;2023-07-16T08:31:53;2.60;;;2.40;;
45420;SDS011;55462;47.042;8.292;2023-07-16T08:34:18;2.20;;;2.10;;
45420;SDS011;55462;47.042;8.292;2023-07-16T08:36:44;2.13;;;2.03;;
45420;SDS011;55462;47.042;8.292;2023-07-16T08:39:09;2.13;;;2.03;;
45420;SDS011;55462;47.042;8.292;2023-07-16T08:41:34;3.58;;;2.28;;
45420;SDS011;55462;47.042;8.292;2023-07-16T08:44:00;2.17;;;2.08;;
45420;SDS011;55462;47.042;8.292;2023-07-16T08:46:26;3.08;;;2.30;;
45420;SDS011;55462;47.042;8.292;2023-07-16T08:48:51;2.53;;;2.22;;
45420;SDS011;55462;47.042;8.292;2023-07-16T08:51:17;3.47;;;2.55;;
45420;SDS011;55462;47.042;8.292;2023-07-16T08:53:43;2.58;;;2.47;;
45420;SDS011;55462;47.042;8.292;2023-07-16T08:56:08;2.95;;;2.20;;
45420;SDS011;55462;47.042;8.292;2023-07-16T08:58:34;2.40;;;2.20;;
45420;SDS011;55462;47.042;8.292;2023-07-16T09:01:02;2.70;;;2.47;;
45420;SDS011;55462;47.042;8.292;2023-07-16T09:03:27;2.78;;;2.50;;
45420;SDS011;55462;47.042;8.292;2023-07-16T09:05:53;3.08;;;2.72;;
45420;SDS011;55462;47.042;8.292;2023-07-16T09:08:19;2.80;;;2.60;;
45420;SDS011;55462;47.042;8.292;2023-07-16T09:10:44;4.50;;;2.58;;
45420;SDS011;55462;47.042;8.292;2023-07-16T09:13:18;3.58;;;3.00;;
45420;SDS011;55462;47.042;8.292;2023-07-16T09:15:43;2.80;;;2.60;;
45420;SDS011;55462;47.042;8.292;2023-07-16T09:18:11;2.75;;;2.38;;
45420;SDS011;55462;47.042;8.292;2023-07-16T09:20:37;2.85;;;2.65;;
45420;SDS011;55462;47.042;8.292;2023-07-16T09:23:04;2.90;;;2.70;;
45420;SDS011;55462;47.042;8.292;2023-07-16T09:25:29;4.80;;;2.70;;
45420;SDS011;55462;47.042;8.292;2023-07-16T09:27:58;2.90;;;2.70;;
45420;SDS011;55462;47.042;8.292;2023-07-16T09:30:30;4.30;;;2.63;;
45420;SDS011;55462;47.042;8.292;2023-07-16T09:32:56;2.75;;;2.58;;
45420;SDS011;55462;47.042;8.292;2023-07-16T09:35:21;2.65;;;2.53;;
45420;SDS011;55462;47.042;8.292;2023-07-16T09:37:46;2.88;;;2.67;;
45420;SDS011;55462;47.042;8.292;2023-07-16T09:40:12;2.85;;;2.70;;
45420;SDS011;55462;47.042;8.292;2023-07-16T09:42:38;3.00;;;2.80;;
45420;SDS011;55462;47.042;8.292;2023-07-16T09:45:08;3.00;;;2.80;;
45420;SDS011;55462;47.042;8.292;2023-07-16T09:47:41;4.07;;;2.83;;
45420;SDS011;55462;47.042;8.292;2023-07-16T09:50:07;2.75;;;2.55;;
45420;SDS011;55462;47.042;8.292;2023-07-16T09:52:33;2.80;;;2.63;;
45420;SDS011;55462;47.042;8.292;2023-07-16T09:55:00;3.28;;;3.03;;
45420;SDS011;55462;47.042;8.292;2023-07-16T09:57:27;2.45;;;2.35;;
45420;SDS011;55462;47.042;8.292;2023-07-16T09:59:53;2.90;;;2.70;;
45420;SDS011;55462;47.042;8.292;2023-07-16T10:02:21;2.83;;;2.60;;
45420;SDS011;55462;47.042;8.292;2023-07-16T10:04:47;2.70;;;2.50;;
45420;SDS011;55462;47.042;8.292;2023-07-16T10:07:23;3.92;;;2.50;;
45420;SDS011;55462;47.042;8.292;2023-07-16T10:09:52;2.70;;;2.50;;
45420;SDS011;55462;47.042;8.292;2023-07-16T10:12:19;2.83;;;2.70;;
45420;SDS011;55462;47.042;8.292;2023-07-16T10:14:46;2.70;;;2.50;;
45420;SDS011;55462;47.042;8.292;2023-07-16T10:17:33;3.92;;;2.78;;
45420;SDS011;55462;47.042;8.292;2023-07-16T10:19:59;2.83;;;2.63;;
45420;SDS011;55462;47.042;8.292;2023-07-16T10:24:57;2.95;;;2.75;;
45420;SDS011;55462;47.042;8.292;2023-07-16T10:27:27;2.92;;;2.75;;
45420;SDS011;55462;47.042;8.292;2023-07-16T10:29:58;3.40;;;2.80;;
45420;SDS011;55462;47.042;8.292;2023-07-16T10:32:27;3.58;;;2.88;;
45420;SDS011;55462;47.042;8.292;2023-07-16T10:34:53;4.60;;;3.42;;
45420;SDS011;55462;47.042;8.292;2023-07-16T10:37:19;3.13;;;2.90;;
45420;SDS011;55462;47.042;8.292;2023-07-16T10:39:48;3.72;;;3.28;;
45420;SDS011;55462;47.042;8.292;2023-07-16T10:42:15;3.10;;;2.85;;
45420;SDS011;55462;47.042;8.292;2023-07-16T10:44:41;4.40;;;3.40;;
45420;SDS011;55462;47.042;8.292;2023-07-16T10:47:06;3.22;;;2.90;;
45420;SDS011;55462;47.042;8.292;2023-07-16T10:49:32;3.67;;;3.38;;
45420;SDS011;55462;47.042;8.292;2023-07-16T10:51:58;4.35;;;2.80;;
45420;SDS011;55462;47.042;8.292;2023-07-16T10:54:25;3.90;;;2.90;;
45420;SDS011;55462;47.042;8.292;2023-07-16T10:56:50;3.97;;;3.63;;
45420;SDS011;55462;47.042;8.292;2023-07-16T10:59:16;3.25;;;3.03;;
45420;SDS011;55462;47.042;8.292;2023-07-16T11:01:42;3.83;;;3.13;;
45420;SDS011;55462;47.042;8.292;2023-07-16T11:04:08;4.32;;;3.22;;
45420;SDS011;55462;47.042;8.292;2023-07-16T11:06:33;3.65;;;2.80;;
45420;SDS011;55462;47.042;8.292;2023-07-16T11:09:09;3.42;;;3.15;;
45420;SDS011;55462;47.042;8.292;2023-07-16T11:11:35;4.65;;;3.00;;
45420;SDS011;55462;47.042;8.292;2023-07-16T11:14:03;2.90;;;2.65;;
45420;SDS011;55462;47.042;8.292;2023-07-16T11:16:32;3.65;;;3.35;;
45420;SDS011;55462;47.042;8.292;2023-07-16T11:18:59;3.13;;;2.92;;
45420;SDS011;55462;47.042;8.292;2023-07-16T11:21:26;3.67;;;2.70;;
45420;SDS011;55462;47.042;8.292;2023-07-16T11:23:51;4.43;;;3.53;;
45420;SDS011;55462;47.042;8.292;2023-07-16T11:26:17;3.83;;;3.25;;
45420;SDS011;55462;47.042;8.292;2023-07-16T11:28:42;3.40;;;2.80;;
45420;SDS011;55462;47.042;8.292;2023-07-16T11:31:13;3.08;;;2.75;;
45420;SDS011;55462;47.042;8.292;2023-07-16T11:33:44;3.33;;;2.90;;
45420;SDS011;55462;47.042;8.292;2023-07-16T11:36:09;2.95;;;2.75;;
45420;SDS011;55462;47.042;8.292;2023-07-16T11:38:36;4.43;;;3.15;;
45420;SDS011;55462;47.042;8.292;2023-07-16T11:41:02;3.38;;;3.08;;
45420;SDS011;55462;47.042;8.292;2023-07-16T11:43:27;3.80;;;2.92;;
45420;SDS011;55462;47.042;8.292;2023-07-16T11:45:53;3.20;;;2.90;;
45420;SDS011;55462;47.042;8.292;2023-07-16T11:48:18;3.55;;;3.08;;
45420;SDS011;55462;47.042;8.292;2023-07-16T11:50:44;4.75;;;3.47;;
45420;SDS011;55462;47.042;8.292;2023-07-16T11:53:10;3.00;;;2.72;;
45420;SDS011;55462;47.042;8.292;2023-07-16T11:55:35;3.90;;;2.92;;
45420;SDS011;55462;47.042;8.292;2023-07-16T11:58:01;9.15;;;2.95;;
45420;SDS011;55462;47.042;8.292;2023-07-16T12:00:27;3.25;;;3.00;;
45420;SDS011;55462;47.042;8.292;2023-07-16T12:02:53;3.10;;;2.80;;
45420;SDS011;55462;47.042;8.292;2023-07-16T12:05:18;2.90;;;2.70;;
45420;SDS011;55462;47.042;8.292;2023-07-16T12:07:44;3.60;;;2.92;;
45420;SDS011;55462;47.042;8.292;2023-07-16T12:10:10;3.30;;;3.00;;
45420;SDS011;55462;47.042;8.292;2023-07-16T12:12:35;3.30;;;3.00;;
45420;SDS011;55462;47.042;8.292;2023-07-16T12:15:07;3.25;;;3.00;;
45420;SDS011;55462;47.042;8.292;2023-07-16T12:17:33;3.20;;;3.00;;
45420;SDS011;55462;47.042;8.292;2023-07-16T12:19:58;5.18;;;3.03;;
45420;SDS011;55462;47.042;8.292;2023-07-16T12:22:23;3.10;;;2.70;;
45420;SDS011;55462;47.042;8.292;2023-07-16T12:24:49;3.58;;;2.80;;
45420;SDS011;55462;47.042;8.292;2023-07-16T12:27:14;3.47;;;3.10;;
45420;SDS011;55462;47.042;8.292;2023-07-16T12:29:41;6.40;;;3.00;;
45420;SDS011;55462;47.042;8.292;2023-07-16T12:32:06;3.67;;;3.38;;
45420;SDS011;55462;47.042;8.292;2023-07-16T12:34:33;3.17;;;2.97;;
45420;SDS011;55462;47.042;8.292;2023-07-16T12:36:58;6.00;;;3.03;;
45420;SDS011;55462;47.042;8.292;2023-07-16T12:39:23;3.30;;;3.00;;
45420;SDS011;55462;47.042;8.292;2023-07-16T12:41:49;3.42;;;2.75;;
45420;SDS011;55462;47.042;8.292;2023-07-16T12:44:14;3.30;;;3.00;;
45420;SDS011;55462;47.042;8.292;2023-07-16T12:46:40;4.00;;;3.70;;
45420;SDS011;55462;47.042;8.292;2023-07-16T12:49:05;4.03;;;3.63;;
45420;SDS011;55462;47.042;8.292;2023-07-16T12:51:30;4.03;;;3.05;;
45420;SDS011;55462;47.042;8.292;2023-07-16T12:53:56;3.58;;;3.03;;
45420;SDS011;55462;47.042;8.292;2023-07-16T12:56:21;3.22;;;2.95;;
45420;SDS011;55462;47.042;8.292;2023-07-16T12:58:47;3.45;;;3.15;;
45420;SDS011;55462;47.042;8.292;2023-07-16T13:01:13;3.60;;;3.22;;
45420;SDS011;55462;47.042;8.292;2023-07-16T13:03:38;4.85;;;2.78;;
45420;SDS011;55462;47.042;8.292;2023-07-16T13:06:03;3.55;;;2.92;;
45420;SDS011;55462;47.042;8.292;2023-07-16T13:08:29;3.63;;;2.67;;
45420;SDS011;55462;47.042;8.292;2023-07-16T13:10:55;4.03;;;3.30;;
45420;SDS011;55462;47.042;8.292;2023-07-16T13:13:20;3.20;;;2.90;;
45420;SDS011;55462;47.042;8.292;2023-07-16T13:15:45;3.80;;;3.50;;
45420;SDS011;55462;47.042;8.292;2023-07-16T13:18:11;4.03;;;3.55;;
45420;SDS011;55462;47.042;8.292;2023-07-16T13:20:36;5.03;;;3.70;;
45420;SDS011;55462;47.042;8.292;2023-07-16T13:23:02;3.88;;;3.45;;
45420;SDS011;55462;47.042;8.292;2023-07-16T13:25:28;3.80;;;3.50;;
45420;SDS011;55462;47.042;8.292;2023-07-16T13:27:54;4.95;;;3.17;;
45420;SDS011;55462;47.042;8.292;2023-07-16T13:30:20;3.17;;;2.88;;
45420;SDS011;55462;47.042;8.292;2023-07-16T13:32:46;3.88;;;3.50;;
45420;SDS011;55462;47.042;8.292;2023-07-16T13:35:13;3.13;;;2.85;;
45420;SDS011;55462;47.042;8.292;2023-07-16T13:37:38;5.32;;;3.38;;
45420;SDS011;55462;47.042;8.292;2023-07-16T13:40:04;4.63;;;3.42;;
45420;SDS011;55462;47.042;8.292;2023-07-16T13:42:30;4.90;;;3.75;;
45420;SDS011;55462;47.042;8.292;2023-07-16T13:44:55;3.42;;;3.13;;
45420;SDS011;55462;47.042;8.292;2023-07-16T13:47:20;3.83;;;3.53;;
45420;SDS011;55462;47.042;8.292;2023-07-16T13:49:46;4.55;;;3.38;;
45420;SDS011;55462;47.042;8.292;2023-07-16T13:52:11;3.95;;;2.92;;
45420;SDS011;55462;47.042;8.292;2023-07-16T13:54:37;4.18;;;3.30;;
45420;SDS011;55462;47.042;8.292;2023-07-16T13:57:02;4.05;;;3.20;;
45420;SDS011;55462;47.042;8.292;2023-07-16T13:59:27;3.25;;;2.95;;
45420;SDS011;55462;47.042;8.292;2023-07-16T14:01:59;3.92;;;3.60;;
45420;SDS011;55462;47.042;8.292;2023-07-16T14:04:26;4.38;;;3.42;;
45420;SDS011;55462;47.042;8.292;2023-07-16T14:06:51;3.67;;;3.05;;
45420;SDS011;55462;47.042;8.292;2023-07-16T14:09:18;3.85;;;3.33;;
45420;SDS011;55462;47.042;8.292;2023-07-16T14:11:44;4.53;;;3.60;;
45420;SDS011;55462;47.042;8.292;2023-07-16T14:14:12;3.30;;;3.10;;
45420;SDS011;55462;47.042;8.292;2023-07-16T14:16:37;3.92;;;3.35;;
45420;SDS011;55462;47.042;8.292;2023-07-16T14:19:03;3.53;;;3.22;;
45420;SDS011;55462;47.042;8.292;2023-07-16T14:21:29;3.83;;;3.15;;
45420;SDS011;55462;47.042;8.292;2023-07-16T14:23:55;3.20;;;3.00;;
45420;SDS011;55462;47.042;8.292;2023-07-16T14:26:20;3.83;;;3.50;;
45420;SDS011;55462;47.042;8.292;2023-07-16T14:28:45;6.38;;;3.60;;
45420;SDS011;55462;47.042;8.292;2023-07-16T14:31:11;3.88;;;3.50;;
45420;SDS011;55462;47.042;8.292;2023-07-16T14:33:37;3.67;;;3.33;;
45420;SDS011;55462;47.042;8.292;2023-07-16T14:36:03;4.15;;;3.30;;
45420;SDS011;55462;47.042;8.292;2023-07-16T14:38:28;3.70;;;3.40;;
45420;SDS011;55462;47.042;8.292;2023-07-16T14:40:53;4.78;;;3.30;;
45420;SDS011;55462;47.042;8.292;2023-07-16T14:43:19;3.67;;;2.85;;
45420;SDS011;55462;47.042;8.292;2023-07-16T14:45:44;3.40;;;3.20;;